Latest Weather Observations for Double Island Point

IDQ60901

Issued at 7:11 am EST Tuesday 27 September 2022 (issued every 10 minutes, with the page automatically refreshed every 10 minutes)

About weather observations | Map of Brisbane area stations | Latest observations for Brisbane area | Other Formats
Station Details ID: 040068 Name: DOUBLE ISLAND POINT LIGHTHOUSE Lat: -25.93 Lon: 153.19 Height: 95.64 m
Data from the previous 72 hours. | See also: Recent months at Double Island Point
Date/Time
EST
Temp
°C
App
Temp
°C
Dew
Point
°C
Rel
Hum
%
Delta-T
°C
Wind Press
QNH
hPa
Press
MSL
hPa
Rain since
9am
mm
Dir  Spd
km/h
Gust
km/h
Spd
kts
Gust
kts
27/07:00am 21.0 22.8 15.5 71 3.3 CALM 0 7 0 4 1016.5 1016.2 0.0
27/06:30am 20.2 21.7 14.6 70 3.3 CALM 0 6 0 3 1016.3 1016.0 0.0
27/06:00am 19.9 21.0 13.6 67 3.6 CALM 0 2 0 1 1015.7 1015.4 0.0
27/05:30am 19.5 20.7 13.9 70 3.2 CALM 0 0 0 0 1015.4 1015.1 0.0
27/05:00am 19.6 19.4 14.6 73 2.9 N 9 19 5 10 1015.2 1014.9 0.0
27/04:30am 19.8 20.8 14.2 70 3.3 N 2 13 1 7 1014.9 1014.6 0.0
27/04:00am 19.9 20.1 14.3 70 3.3 N 6 17 3 9 1014.7 1014.4 0.0
27/03:30am 20.1 19.3 12.8 63 4.1 N 9 33 5 18 1014.4 1014.1 0.0
27/03:00am 20.3 20.0 12.8 62 4.3 NNW 6 17 3 9 1013.9 1013.6 0.0
27/02:30am 20.3 20.0 12.8 62 4.3 N 6 22 3 12 1014.5 1014.2 0.0
27/02:00am 20.3 21.0 13.3 64 4.0 NNW 2 13 1 7 1014.5 1014.2 0.0
27/01:30am 20.5 19.7 13.0 62 4.3 N 9 26 5 14 1014.7 1014.4 0.0
27/01:00am 20.5 20.2 12.7 61 4.4 NNW 6 24 3 13 1015.1 1014.8 0.0
27/12:30am 20.5 17.9 13.7 65 3.9 N 20 33 11 18 1015.3 1015.0 0.0
27/12:00am 20.6 18.4 14.3 67 3.7 NNE 19 32 10 17 1015.8 1015.5 0.0
 
Date/Time
EST
Temp
°C
App
Temp
°C
Dew
Point
°C
Rel
Hum
%
Delta-T
°C
Wind Press
QNH
hPa
Press
MSL
hPa
Rain since
9am
mm
Dir  Spd
km/h
Gust
km/h
Spd
kts
Gust
kts
26/11:30pm 20.5 21.1 14.2 67 3.7 NNW 4 22 2 12 1016.1 1015.8 0.0
26/11:00pm 20.6 17.6 13.8 65 3.9 NNE 22 33 12 18 1015.9 1015.6 0.0
26/10:30pm 20.7 18.7 13.9 65 3.9 N 17 35 9 19 1016.0 1015.7 0.0
26/10:00pm 20.7 17.7 13.6 64 4.1 NNE 22 35 12 19 1015.8 1015.5 0.0
26/09:30pm 20.7 19.4 13.6 64 4.1 N 13 33 7 18 1016.1 1015.8 0.0
26/09:00pm 20.9 18.1 13.1 61 4.5 N 20 39 11 21 1016.0 1015.7 0.0
26/08:30pm 20.9 18.9 12.8 60 4.6 N 15 39 8 21 1016.0 1015.7 0.0
26/08:00pm 20.9 16.3 13.6 63 4.2 NNE 30 43 16 23 1015.7 1015.4 0.0
26/07:30pm 21.0 16.2 12.9 60 4.6 NNE 30 44 16 24 1015.3 1015.0 0.0
26/07:00pm 21.0 15.8 12.7 59 4.7 NNE 32 44 17 24 1015.1 1014.8 0.0
26/06:30pm 21.0 15.7 13.2 61 4.5 NNE 33 44 18 24 1014.8 1014.5 0.0
26/06:00pm 21.1 16.4 14.3 65 4.0 NNE 32 43 17 23 1014.6 1014.3 0.0
26/05:30pm 21.4 16.9 15.3 68 3.6 NNE 33 41 18 22 1014.5 1014.2 0.0
26/05:00pm 22.3 18.3 16.3 69 3.6 NNE 32 37 17 20 1014.2 1013.9 0.0
26/04:30pm 22.7 19.1 16.3 67 3.9 NNE 30 35 16 19 1013.9 1013.6 0.0
26/04:00pm 23.3 20.2 16.6 66 4.1 NNE 28 35 15 19 1013.8 1013.5 0.0
26/03:30pm 24.0 21.5 17.0 65 4.3 NNE 26 32 14 17 1014.0 1013.7 0.0
26/03:00pm 24.6 22.5 16.3 60 5.1 NNE 22 28 12 15 1014.0 1013.7 0.0
26/02:30pm 25.5 24.5 15.5 54 6.1 NNE 15 22 8 12 1014.1 1013.8 0.0
26/02:00pm 26.2 26.5 17.0 57 5.7 NE 11 22 6 12 1014.6 1014.3 0.0
26/01:30pm 26.7 28.2 17.5 57 5.8 NE 6 15 3 8 1014.9 1014.6 0.0
26/01:00pm 26.3 26.9 17.6 58 5.5 NE 11 17 6 9 1015.4 1015.1 0.0
26/12:30pm 27.0 29.8 18.8 60 5.3 NE 2 11 1 6 1015.7 1015.4 0.0
26/12:00pm 26.9 29.0 19.0 62 5.1 NE 6 13 3 7 1016.3 1016.0 0.0
26/11:30am 26.5 28.7 18.4 61 5.2 NE 4 11 2 6 1016.8 1016.5 0.0
26/11:00am 26.0 28.9 18.2 62 4.9 CALM 0 6 0 3 1017.2 1016.9 0.0
26/10:30am 24.9 27.5 18.4 67 4.1 ENE 2 9 1 5 1017.5 1017.2 0.0
26/10:00am 24.0 26.6 17.5 67 4.1 CALM 0 6 0 3 1017.7 1017.4 0.0
26/09:30am 23.5 26.3 17.9 71 3.5 CALM 0 2 0 1 1018.0 1017.7 0.0
26/09:00am 22.6 25.3 17.7 74 3.0 CALM 0 0 0 0 1017.8 1017.5 0.0
26/08:30am 23.0 26.3 19.0 78 2.5 CALM 0 2 0 1 1017.8 1017.5 0.0
26/08:00am 22.4 25.3 18.2 77 2.6 CALM 0 2 0 1 1017.7 1017.4 0.0
26/07:30am 21.9 24.7 17.9 78 2.5 CALM 0 0 0 0 1017.6 1017.3 0.0
26/07:00am 20.9 23.2 16.7 77 2.6 CALM 0 0 0 0 1017.4 1017.1 0.0
26/06:30am 19.7 21.8 16.2 80 2.1 CALM 0 0 0 0 1017.1 1016.8 0.0
26/06:00am 19.0 20.8 15.5 80 2.1 CALM 0 0 0 0 1016.9 1016.6 0.0
26/05:30am 18.9 20.6 15.2 79 2.2 CALM 0 0 0 0 1016.9 1016.6 0.0
26/05:00am 18.9 20.5 15.0 78 2.3 CALM 0 0 0 0 1016.8 1016.5 0.0
26/04:30am 18.5 19.8 14.0 75 2.6 CALM 0 0 0 0 1016.6 1016.3 0.0
26/04:00am 18.5 19.6 13.6 73 2.8 CALM 0 0 0 0 1016.4 1016.1 0.0
26/03:30am 18.7 19.9 13.8 73 2.8 CALM 0 0 0 0 1016.4 1016.1 0.0
26/03:00am 18.9 20.2 14.2 74 2.7 CALM 0 2 0 1 1016.4 1016.1 0.0
26/02:30am 18.9 20.3 14.4 75 2.6 CALM 0 0 0 0 1016.3 1016.0 0.0
26/02:00am 18.9 20.2 14.2 74 2.7 CALM 0 0 0 0 1016.2 1015.9 0.0
26/01:30am 18.9 20.2 14.2 74 2.7 CALM 0 0 0 0 1016.5 1016.2 0.0
26/01:00am 18.7 20.0 15.2 80 2.1 N 2 11 1 6 1016.7 1016.4 0.0
26/12:30am 19.0 19.6 15.9 82 1.8 N 7 11 4 6 1016.9 1016.6 0.0
26/12:00am 19.0 19.6 15.3 79 2.2 N 6 11 3 6 1017.2 1016.9 0.0
 
Date/Time
EST
Temp
°C
App
Temp
°C
Dew
Point
°C
Rel
Hum
%
Delta-T
°C
Wind Press
QNH
hPa
Press
MSL
hPa
Rain since
9am
mm
Dir  Spd
km/h
Gust
km/h
Spd
kts
Gust
kts
25/11:30pm 18.7 20.4 15.2 80 2.1 CALM 0 0 0 0 1017.2 1016.9 0.0
25/11:00pm 18.8 20.6 15.5 81 1.9 CALM 0 0 0 0 1017.1 1016.8 0.0
25/10:30pm 19.2 21.1 15.7 80 2.1 CALM 0 0 0 0 1016.9 1016.6 0.0
25/10:00pm 19.0 20.6 15.9 82 1.8 NNE 2 9 1 5 1016.8 1016.5 0.0
25/09:30pm 19.1 21.1 16.0 82 1.9 CALM 0 6 0 3 1016.9 1016.6 0.0
25/09:00pm 19.3 21.3 16.0 81 2.0 CALM 0 6 0 3 1017.0 1016.7 0.0
25/08:30pm 19.5 21.2 16.2 81 2.0 NE 2 11 1 6 1016.9 1016.6 0.0
25/08:00pm 19.9 19.9 16.3 80 2.2 ENE 11 17 6 9 1016.7 1016.4 0.0
25/07:30pm 20.0 18.4 16.6 81 2.1 E 20 26 11 14 1016.2 1015.9 0.0
25/07:00pm 20.0 18.5 16.8 82 1.9 ESE 20 24 11 13 1015.7 1015.4 0.0
25/06:30pm 20.1 17.7 16.5 80 2.2 ESE 24 28 13 15 1015.4 1015.1 0.0
25/06:00pm 20.1 17.7 16.3 79 2.3 ESE 24 28 13 15 1015.0 1014.7 0.0
25/05:30pm 20.5 18.6 15.7 74 2.9 ESE 20 26 11 14 1014.5 1014.2 0.0
25/05:00pm 20.7 17.7 13.6 64 4.1 ESE 22 26 12 14 1014.1 1013.8 0.0
25/04:30pm 21.0 18.0 12.4 58 4.9 ESE 20 22 11 12 1014.0 1013.7 0.0
25/04:00pm 21.4 17.2 11.1 52 5.7 ESE 24 28 13 15 1013.7 1013.4 0.0
25/03:30pm 21.7 17.3 10.5 49 6.1 ESE 24 28 13 15 1013.5 1013.2 0.0
25/03:00pm 22.3 17.7 9.8 45 6.8 ESE 24 28 13 15 1013.5 1013.2 0.0
25/02:30pm 22.6 18.6 10.4 46 6.7 SE 22 28 12 15 1013.8 1013.5 0.0
25/02:00pm 22.9 18.5 9.0 41 7.5 ESE 22 26 12 14 1013.9 1013.6 0.0
25/01:30pm 23.4 20.1 10.8 45 7.0 SE 19 22 10 12 1014.2 1013.9 0.0
25/01:00pm 23.6 20.0 12.0 48 6.6 SSE 22 26 12 14 1014.7 1014.4 0.0
25/12:30pm 23.6 19.7 12.0 48 6.6 SSE 24 32 13 17 1015.0 1014.7 0.0
25/12:00pm 23.4 19.3 11.5 47 6.7 SSE 24 30 13 16 1015.4 1015.1 0.0
25/11:30am 23.2 19.0 9.6 42 7.4 SSE 22 32 12 17 1015.7 1015.4 0.0
25/11:00am 23.3 19.6 10.0 43 7.3 SSE 20 30 11 16 1016.1 1015.8 0.0
25/10:30am 23.4 19.8 10.5 44 7.1 SSE 20 26 11 14 1016.4 1016.1 0.0
25/10:00am 23.3 19.7 10.7 45 7.0 S 20 26 11 14 1016.4 1016.1 0.0
25/09:30am 22.5 17.6 8.6 41 7.4 S 24 33 13 18 1016.4 1016.1 0.0
25/09:00am 22.5 16.8 8.2 40 7.6 SSW 28 39 15 21 1016.1 1015.8 0.0
25/08:30am 22.2 16.8 9.4 44 6.9 SSW 28 35 15 19 1016.1 1015.8 0.0
25/08:00am 21.6 15.7 9.2 45 6.6 SSW 30 37 16 20 1016.0 1015.7 0.0
25/07:30am 21.4 14.9 8.0 42 7.0 SW 32 41 17 22 1015.8 1015.5 0.0
25/07:00am 21.0 13.9 8.0 43 6.8 SW 35 44 19 24 1015.3 1015.0 0.0
25/06:30am 20.5 13.4 8.2 45 6.4 SSW 35 46 19 25 1015.0 1014.7 0.0
25/06:00am 19.4 14.5 10.1 55 5.0 S 26 33 14 18 1014.7 1014.4 0.0
25/05:30am 19.5 13.4 9.7 53 5.2 SSW 32 35 17 19 1014.4 1014.1 0.0
25/05:00am 19.3 13.5 9.5 53 5.2 SSW 30 35 16 19 1014.1 1013.8 0.0
25/04:30am 19.6 13.4 9.5 52 5.4 SW 32 41 17 22 1013.8 1013.5 0.0
25/04:00am 18.9 16.0 11.0 60 4.3 S 17 26 9 14 1013.7 1013.4 0.0
25/03:30am 19.5 15.6 10.8 57 4.7 SSW 22 32 12 17 1013.5 1013.2 0.0
25/03:00am 20.6 14.6 10.1 51 5.7 SW 32 43 17 23 1013.2 1013.0 0.0
25/02:30am 20.9 14.7 10.1 50 5.9 SW 33 46 18 25 1013.3 1013.1 0.0
25/02:00am 20.8 15.2 10.0 50 5.8 SW 30 41 16 22 1013.5 1013.2 0.0
25/01:30am 20.9 15.4 10.4 51 5.7 WSW 30 37 16 20 1013.5 1013.2 0.0
25/01:00am 21.2 15.7 10.4 50 5.9 WSW 30 37 16 20 1013.7 1013.4 0.0
25/12:30am 21.2 16.0 10.4 50 5.9 WSW 28 35 15 19 1014.0 1013.7 0.0
25/12:00am 21.3 16.2 10.5 50 5.9 WSW 28 35 15 19 1014.0 1013.7 0.0
 
Date/Time
EST
Temp
°C
App
Temp
°C
Dew
Point
°C
Rel
Hum
%
Delta-T
°C
Wind Press
QNH
hPa
Press
MSL
hPa
Rain since
9am
mm
Dir  Spd
km/h
Gust
km/h
Spd
kts
Gust
kts
24/11:30pm 21.7 16.7 10.8 50 6.0 WSW 28 35 15 19 1014.1 1013.8 0.0
24/11:00pm 22.3 18.3 10.5 47 6.5 WSW 22 32 12 17 1014.0 1013.7 0.0
24/10:30pm 22.3 18.5 11.1 49 6.2 WSW 22 30 12 16 1014.0 1013.7 0.0
24/10:00pm 22.4 19.3 11.5 50 6.1 WSW 19 28 10 15 1013.8 1013.5 0.0
24/09:30pm 22.0 19.0 12.0 53 5.6 W 19 28 10 15 1013.6 1013.3 0.0
24/09:00pm 20.7 19.2 15.3 71 3.2 NW 17 22 9 12 1013.3 1013.1 0.0
24/08:30pm 20.5 20.5 18.1 86 1.5 NNW 15 19 8 10 1013.1 1012.9 0.0
24/08:00pm 20.5 22.4 18.6 89 1.2 NNW 6 11 3 6 1012.7 1012.5 0.0
24/07:30pm 20.3 23.0 17.7 85 1.6 CALM 0 6 0 3 1012.4 1012.2 0.0
24/07:00pm 20.3 22.4 17.3 83 1.8 NNW 2 15 1 8 1011.8 1011.5 0.0
24/06:30pm 20.7 23.2 17.3 81 2.1 CALM 0 11 0 6 1011.5 1011.2 0.0
24/06:00pm 21.1 23.6 17.3 79 2.3 CALM 0 6 0 3 1011.0 1010.7 0.0
24/05:30pm 21.8 21.6 17.6 77 2.6 NNE 15 24 8 13 1010.6 1010.3 0.0
24/05:00pm 22.7 24.5 17.4 72 3.3 N 4 20 2 11 1010.3 1010.0 0.0
24/04:30pm 24.0 26.2 17.5 67 4.1 NNE 2 11 1 6 1010.0 1009.7 0.0
24/04:00pm 24.5 27.3 18.0 67 4.1 CALM 0 7 0 4 1009.8 1009.5 0.0
24/03:30pm 23.7 25.7 17.0 66 4.1 NE 2 13 1 7 1009.8 1009.5 0.0
24/03:00pm 23.2 22.5 16.5 66 4.1 ENE 15 20 8 11 1009.7 1009.4 0.0
24/02:30pm 24.2 24.3 17.4 65 4.2 E 13 19 7 10 1009.8 1009.5 0.0
24/02:00pm 23.2 22.6 16.7 67 4.0 E 15 20 8 11 1010.1 1009.8 0.0
24/01:30pm 24.4 24.8 18.1 68 4.0 ENE 13 24 7 13 1010.4 1010.1 0.0
24/01:00pm 23.8 23.1 16.3 63 4.6 ENE 15 20 8 11 1010.8 1010.5 0.0
24/12:30pm 26.1 27.3 16.9 57 5.7 NE 6 13 3 7 1011.0 1010.7 0.0
24/12:00pm 25.0 25.2 16.7 60 5.1 ENE 11 13 6 7 1011.4 1011.1 0.0
24/11:30am 26.7 28.1 17.8 58 5.6 NE 7 17 4 9 1011.8 1011.5 0.0
24/11:00am 26.6 29.2 17.4 57 5.8 CALM 0 6 0 3 1012.4 1012.2 0.0
24/10:30am 25.7 27.6 16.8 58 5.5 NE 2 6 1 3 1012.9 1012.7 0.0
24/10:00am 23.5 25.1 14.8 58 5.2 CALM 0 6 0 3 1013.0 1012.8 0.0
24/09:30am 22.6 21.8 15.2 63 4.4 NW 13 19 7 10 1013.2 1013.0 0.0
24/09:00am 21.3 19.7 14.9 67 3.8 NW 17 20 9 11 1013.2 1013.0 0.0
24/08:30am 20.9 20.1 14.1 65 4.0 WNW 11 15 6 8 1013.3 1013.1 0.0
24/08:00am 19.7 18.7 14.7 73 2.9 NW 13 19 7 10 1013.0 1012.8 0.0
24/07:30am 19.9 19.2 13.1 65 3.9 WSW 9 15 5 8 1012.8 1012.6 0.0

Latest Capital City Observations: Canberra | Sydney | Melbourne | Brisbane | Adelaide | Perth | Hobart | Darwin

Other formats

Comma delimited format used in spreadsheet applications
http://www.bom.gov.au/fwo/IDQ60901/IDQ60901.94584.axf

JavaScript Object Notation format (JSON) in row-major order
http://www.bom.gov.au/fwo/IDQ60901/IDQ60901.94584.json

Data quality

Most of these data are generated automatically and are frequently updated. Quality checks on data are not normally performed. It is possible for incorrect values to appear. Refer to information at About Latest Weather Observations and please check the disclaimer before using these data.